Time;durP1;ratioP1;P1;durP2;ratioP2;P2;SDS_P1;SDS_P2;PMS_P1;PMS_P2;Temp;Humidity;BMP_temperature;BMP_pressure;BME280_temperature;BME280_humidity;BME280_pressure;Samples;Min_cycle;Max_cycle;Signal;HPM_P1;HPM_P2
2022/03/08 00:00:13;;;;;;;9.52;5.35;;;0.50;99.90;;;;;;5071458;28;20488;-66
2022/03/08 00:02:39;;;;;;;9.10;5.65;;;0.40;99.90;;;;;;5074239;28;20044;-67
2022/03/08 00:05:06;;;;;;;11.45;6.95;;;0.40;99.90;;;;;;5108150;28;20110;-66
2022/03/08 00:07:32;;;;;;;9.95;5.65;;;0.40;99.90;;;;;;5074190;28;20044;-66
2022/03/08 00:09:57;;;;;;;9.88;5.28;;;0.40;99.90;;;;;;5073825;28;20411;-66
2022/03/08 00:12:23;;;;;;;11.27;6.05;;;0.40;99.90;;;;;;5073793;28;20110;-66
2022/03/08 00:14:49;;;;;;;11.82;6.13;;;0.40;99.90;;;;;;5074101;28;20040;-66
2022/03/08 00:17:15;;;;;;;10.68;5.85;;;0.50;99.90;;;;;;5056970;28;20052;-66
2022/03/08 00:19:41;;;;;;;10.35;6.45;;;0.50;99.90;;;;;;5107742;28;20527;-66
2022/03/08 00:22:06;;;;;;;12.35;6.10;;;0.50;99.90;;;;;;5073600;28;20048;-66
2022/03/08 00:24:33;;;;;;;8.82;5.75;;;0.50;99.90;;;;;;5107579;28;20036;-66
2022/03/08 00:26:59;;;;;;;8.48;5.57;;;0.40;99.90;;;;;;5071347;28;20120;-66
2022/03/08 00:29:24;;;;;;;10.50;5.72;;;0.40;99.90;;;;;;5073590;28;20579;-66
2022/03/08 00:31:50;;;;;;;11.25;5.82;;;0.30;99.90;;;;;;5073741;28;20055;-66
2022/03/08 00:34:16;;;;;;;10.77;5.35;;;0.30;99.90;;;;;;5073692;28;20040;-67
2022/03/08 00:36:42;;;;;;;11.68;6.30;;;0.30;99.90;;;;;;5073653;28;20040;-67
2022/03/08 00:39:08;;;;;;;11.95;7.20;;;0.40;99.90;;;;;;5073509;28;20090;-67
2022/03/08 00:41:34;;;;;;;9.90;6.10;;;0.40;99.90;;;;;;5073256;28;20074;-67
2022/03/08 00:43:59;;;;;;;9.60;6.32;;;0.40;99.90;;;;;;5073335;28;20040;-67
2022/03/08 00:46:25;;;;;;;10.93;6.00;;;0.40;99.90;;;;;;5073363;28;20068;-67
2022/03/08 00:48:51;;;;;;;10.68;6.25;;;0.40;99.90;;;;;;5073235;28;20048;-67
2022/03/08 00:51:17;;;;;;;14.80;7.53;;;0.30;99.90;;;;;;5073085;28;20044;-67
2022/03/08 00:53:43;;;;;;;12.38;7.47;;;0.30;99.90;;;;;;5073225;28;20312;-67
2022/03/08 00:56:09;;;;;;;9.80;6.30;;;0.30;99.90;;;;;;5073360;28;20052;-67
2022/03/08 00:58:36;;;;;;;11.93;6.65;;;0.30;99.90;;;;;;5053846;28;20122;-67
2022/03/08 01:01:03;;;;;;;12.52;6.30;;;0.20;99.90;;;;;;5073330;28;20374;-67
2022/03/08 01:03:29;;;;;;;13.50;6.47;;;0.20;99.90;;;;;;5072871;28;20040;-67
2022/03/08 01:05:55;;;;;;;11.75;6.47;;;0.20;99.90;;;;;;5072917;28;20124;-67
2022/03/08 01:08:21;;;;;;;11.50;6.13;;;0.20;99.90;;;;;;5072686;28;20051;-67
2022/03/08 01:10:46;;;;;;;10.50;6.28;;;0.30;99.90;;;;;;5072685;28;20094;-67
2022/03/08 01:13:12;;;;;;;11.18;6.47;;;0.30;99.90;;;;;;5073026;28;20542;-67
2022/03/08 01:15:38;;;;;;;12.88;6.50;;;0.30;99.90;;;;;;5056068;28;20407;-67
2022/03/08 01:18:04;;;;;;;13.00;7.15;;;0.30;99.90;;;;;;5072484;28;20053;-67
2022/03/08 01:20:30;;;;;;;12.88;7.57;;;0.30;99.90;;;;;;5072941;28;20049;-67
2022/03/08 01:22:56;;;;;;;11.38;7.00;;;0.20;99.90;;;;;;5072410;28;20033;-67
2022/03/08 01:25:23;;;;;;;14.15;7.43;;;0.20;99.90;;;;;;5072775;28;20101;-67
2022/03/08 01:27:50;;;;;;;9.95;6.45;;;0.10;99.90;;;;;;5053314;28;20040;-67
2022/03/08 01:30:17;;;;;;;11.50;6.88;;;0.00;99.90;;;;;;5055800;28;20127;-67
2022/03/08 01:32:43;;;;;;;11.85;6.60;;;0.00;99.90;;;;;;5072352;28;20073;-67
2022/03/08 01:35:10;;;;;;;13.02;6.95;;;-0.10;99.90;;;;;;5072336;28;20044;-67
2022/03/08 01:37:36;;;;;;;13.85;8.25;;;-0.10;99.90;;;;;;5072010;28;20041;-67
2022/03/08 01:40:04;;;;;;;14.88;8.18;;;-0.10;99.90;;;;;;5072589;28;20095;-67
2022/03/08 01:42:30;;;;;;;11.68;7.82;;;-0.20;99.90;;;;;;5072442;28;20131;-67
2022/03/08 01:44:56;;;;;;;11.95;7.47;;;-0.20;99.90;;;;;;5072269;28;20579;-67
2022/03/08 01:47:24;;;;;;;14.13;6.90;;;-0.30;99.90;;;;;;5072309;28;20045;-67
2022/03/08 01:49:51;;;;;;;12.55;7.20;;;-0.30;99.90;;;;;;5072129;28;20055;-67
2022/03/08 01:52:20;;;;;;;12.68;7.20;;;-0.30;99.90;;;;;;5072000;28;20505;-67
2022/03/08 01:54:46;;;;;;;13.32;7.60;;;-0.30;99.90;;;;;;5072180;28;20047;-67
2022/03/08 01:57:12;;;;;;;13.05;7.72;;;-0.30;99.90;;;;;;5069591;28;20044;-67
2022/03/08 01:59:39;;;;;;;14.52;7.60;;;-0.40;99.90;;;;;;5072234;28;20113;-67
2022/03/08 02:02:06;;;;;;;11.98;7.40;;;-0.40;99.90;;;;;;5071877;28;20036;-67
2022/03/08 02:04:32;;;;;;;12.80;8.13;;;-0.40;99.90;;;;;;5072047;28;20106;-67
2022/03/08 02:06:59;;;;;;;13.77;8.23;;;-0.50;99.90;;;;;;5072199;28;20503;-67
2022/03/08 02:09:25;;;;;;;13.75;8.55;;;-0.50;99.90;;;;;;5072103;28;20036;-67
2022/03/08 02:11:50;;;;;;;15.88;8.07;;;-0.50;99.90;;;;;;5071799;28;20559;-67
2022/03/08 02:14:17;;;;;;;15.75;8.25;;;-0.50;99.90;;;;;;5071639;28;20041;-67
2022/03/08 02:16:44;;;;;;;13.07;7.95;;;-0.50;99.90;;;;;;5055298;28;20130;-67
2022/03/08 02:19:14;;;;;;;16.60;7.78;;;-0.50;99.90;;;;;;5071216;28;20053;-69
2022/03/08 02:21:40;;;;;;;14.98;8.35;;;-0.50;99.90;;;;;;5071485;28;20056;-67
2022/03/08 02:24:06;;;;;;;15.52;8.55;;;-0.50;99.90;;;;;;5070949;28;20040;-68
2022/03/08 02:26:32;;;;;;;15.73;8.45;;;-0.50;99.90;;;;;;5070636;28;20044;-69
2022/03/08 02:28:59;;;;;;;18.30;9.27;;;-0.40;99.90;;;;;;5070441;28;20048;-69
2022/03/08 02:31:25;;;;;;;16.95;8.63;;;-0.30;99.90;;;;;;5055184;28;20486;-67
2022/03/08 02:33:51;;;;;;;14.60;8.50;;;-0.30;99.90;;;;;;5071158;28;20044;-67
2022/03/08 02:36:17;;;;;;;15.77;9.23;;;-0.40;99.90;;;;;;5071536;28;20036;-68
2022/03/08 02:38:43;;;;;;;13.13;8.25;;;-0.40;99.90;;;;;;5061774;28;20045;-67
2022/03/08 02:41:09;;;;;;;12.68;8.15;;;-0.40;99.90;;;;;;5051227;28;20037;-67
2022/03/08 02:43:35;;;;;;;13.90;7.68;;;-0.40;99.90;;;;;;5050995;28;20045;-67
2022/03/08 02:46:01;;;;;;;17.08;8.60;;;-0.40;99.90;;;;;;5051144;28;20119;-67
2022/03/08 02:48:27;;;;;;;16.63;9.60;;;-0.40;99.90;;;;;;5050906;28;20048;-67
2022/03/08 02:50:54;;;;;;;13.80;7.38;;;-0.50;99.90;;;;;;5051318;28;20045;-68
2022/03/08 02:53:20;;;;;;;16.70;9.00;;;-0.50;99.90;;;;;;5050921;28;20040;-68
2022/03/08 02:55:46;;;;;;;14.48;8.80;;;-0.60;99.90;;;;;;5051098;28;20102;-68
2022/03/08 02:58:12;;;;;;;16.48;9.68;;;-0.60;99.90;;;;;;5048624;28;20087;-68
2022/03/08 03:00:38;;;;;;;14.48;8.73;;;-0.60;99.90;;;;;;5050892;28;20493;-68
2022/03/08 03:03:05;;;;;;;15.98;9.30;;;-0.70;99.90;;;;;;5050962;28;20094;-68
2022/03/08 03:05:31;;;;;;;17.70;9.57;;;-0.70;99.90;;;;;;5034577;28;20040;-68
2022/03/08 03:07:57;;;;;;;15.50;9.00;;;-0.70;99.90;;;;;;5050950;28;20496;-68
2022/03/08 03:10:24;;;;;;;14.20;8.75;;;-0.70;99.90;;;;;;5034211;28;20114;-68
2022/03/08 03:12:51;;;;;;;16.77;9.40;;;-0.70;99.90;;;;;;5051221;28;20511;-68
2022/03/08 03:15:18;;;;;;;16.75;9.43;;;-0.70;99.90;;;;;;5050682;28;20091;-68
2022/03/08 03:17:45;;;;;;;16.83;9.77;;;-0.80;99.90;;;;;;5050429;28;20068;-68
2022/03/08 03:20:13;;;;;;;13.82;8.77;;;-0.80;99.90;;;;;;5050815;28;20051;-68
2022/03/08 03:22:39;;;;;;;15.48;9.57;;;-0.80;99.90;;;;;;5050645;28;20045;-68
2022/03/08 03:25:06;;;;;;;15.82;8.90;;;-0.80;99.90;;;;;;5050539;28;20040;-69
2022/03/08 03:27:32;;;;;;;19.27;9.73;;;-0.80;99.90;;;;;;5048465;28;20052;-69
2022/03/08 03:29:58;;;;;;;19.27;10.02;;;-0.80;99.90;;;;;;5050710;28;20045;-69
2022/03/08 03:32:24;;;;;;;16.85;9.52;;;-0.80;99.90;;;;;;5067466;28;20076;-68
2022/03/08 03:34:50;;;;;;;15.35;9.50;;;-0.80;99.90;;;;;;5086674;28;20087;-68
2022/03/08 03:37:17;;;;;;;19.50;10.40;;;-0.80;99.90;;;;;;5037868;28;20047;-68
2022/03/08 03:39:43;;;;;;;19.55;10.50;;;-0.80;99.90;;;;;;5054547;28;20033;-68
2022/03/08 03:42:09;;;;;;;18.13;9.70;;;-0.80;99.90;;;;;;5054770;28;20069;-68
2022/03/08 03:44:35;;;;;;;19.92;9.57;;;-0.80;99.90;;;;;;5088226;28;20061;-68
2022/03/08 03:47:01;;;;;;;18.67;10.48;;;-0.80;99.90;;;;;;5071381;28;20044;-68
2022/03/08 03:49:26;;;;;;;17.35;10.70;;;-0.80;99.90;;;;;;5087895;28;20048;-68
2022/03/08 03:51:53;;;;;;;17.15;10.35;;;-0.70;99.90;;;;;;5088049;28;20098;-68
2022/03/08 03:54:22;;;;;;;18.92;10.27;;;-0.70;99.90;;;;;;5087833;28;20044;-68
2022/03/08 03:56:49;;;;;;;17.58;10.45;;;-0.70;99.90;;;;;;5052472;28;20393;-68
2022/03/08 03:59:15;;;;;;;19.73;10.15;;;-0.70;99.90;;;;;;5037430;28;20047;-68
2022/03/08 04:01:41;;;;;;;18.05;10.68;;;-0.60;99.90;;;;;;5054249;28;20033;-68
2022/03/08 04:04:07;;;;;;;21.48;11.25;;;-0.60;99.90;;;;;;5054078;28;20037;-68
2022/03/08 04:06:33;;;;;;;16.88;10.60;;;-0.60;99.90;;;;;;5054453;28;20033;-68
2022/03/08 04:09:00;;;;;;;18.73;10.80;;;-0.60;99.90;;;;;;5087519;28;20078;-68
2022/03/08 04:11:25;;;;;;;19.23;11.27;;;-0.60;99.90;;;;;;5087672;28;20053;-68
2022/03/08 04:13:51;;;;;;;18.80;10.70;;;-0.60;99.90;;;;;;5087830;28;20045;-68
2022/03/08 04:16:17;;;;;;;18.65;10.63;;;-0.60;99.90;;;;;;5053937;28;20053;-68
2022/03/08 04:18:43;;;;;;;20.83;10.77;;;-0.60;99.90;;;;;;5053560;28;20346;-68
2022/03/08 04:21:09;;;;;;;20.92;11.50;;;-0.60;99.90;;;;;;5053875;28;20045;-68
2022/03/08 04:23:34;;;;;;;17.80;10.73;;;-0.60;99.90;;;;;;5087635;28;20041;-68
2022/03/08 04:26:00;;;;;;;20.00;10.88;;;-0.60;99.90;;;;;;5053723;28;20041;-68
2022/03/08 04:28:26;;;;;;;19.90;11.23;;;-0.60;99.90;;;;;;5070904;28;20056;-68
2022/03/08 04:30:52;;;;;;;15.73;10.02;;;-0.70;99.90;;;;;;5033846;28;20041;-68
2022/03/08 04:33:18;;;;;;;18.27;10.82;;;-0.70;99.90;;;;;;5033670;28;20493;-68
2022/03/08 04:35:44;;;;;;;19.45;10.52;;;-0.70;99.90;;;;;;5050257;28;20052;-68
2022/03/08 04:38:10;;;;;;;17.30;10.48;;;-0.70;99.90;;;;;;5033571;28;20053;-68
2022/03/08 04:40:36;;;;;;;18.40;11.75;;;-0.70;99.90;;;;;;5067073;28;20258;-68
2022/03/08 04:43:02;;;;;;;17.55;11.60;;;-0.70;99.90;;;;;;5063845;28;20079;-68
2022/03/08 04:45:28;;;;;;;17.85;11.18;;;-0.80;99.90;;;;;;5032610;28;20099;-68
2022/03/08 04:47:54;;;;;;;18.48;10.65;;;-0.70;99.90;;;;;;5066688;28;20049;-68
2022/03/08 04:50:20;;;;;;;19.52;11.32;;;-0.80;99.90;;;;;;5033328;28;20056;-68
2022/03/08 04:52:48;;;;;;;19.98;12.95;;;-0.80;99.90;;;;;;5033612;28;20127;-69
2022/03/08 04:55:15;;;;;;;19.27;11.50;;;-0.80;99.90;;;;;;5033162;28;20124;-69
2022/03/08 04:57:41;;;;;;;21.73;12.13;;;-0.80;99.90;;;;;;5048018;28;20042;-68
2022/03/08 05:00:11;;;;;;;22.38;12.13;;;-0.90;99.90;;;;;;5016703;28;20099;-68
2022/03/08 05:02:38;;;;;;;14.77;9.15;;;-0.90;99.90;;;;;;5033328;28;20087;-68
2022/03/08 05:05:06;;;;;;;21.50;12.15;;;-0.80;99.90;;;;;;5033054;28;20045;-69
2022/03/08 05:07:32;;;;;;;19.80;11.85;;;-0.80;99.90;;;;;;5049729;28;20049;-68
2022/03/08 05:09:58;;;;;;;20.65;12.80;;;-0.80;99.90;;;;;;5033232;28;20041;-68
2022/03/08 05:12:23;;;;;;;21.25;12.30;;;-0.90;99.90;;;;;;5032872;28;20497;-68
2022/03/08 05:14:49;;;;;;;22.05;11.57;;;-0.90;99.90;;;;;;5032870;28;20041;-69
2022/03/08 05:17:15;;;;;;;22.27;12.13;;;-0.90;99.90;;;;;;5032661;28;20053;-68
2022/03/08 05:19:41;;;;;;;21.15;10.68;;;-0.90;99.90;;;;;;5066414;28;20053;-69
2022/03/08 05:22:07;;;;;;;22.77;11.32;;;-1.00;99.90;;;;;;5066419;28;20080;-68
2022/03/08 05:24:32;;;;;;;20.80;12.05;;;-1.00;99.90;;;;;;5032861;28;20500;-69
2022/03/08 05:26:58;;;;;;;24.48;11.98;;;-1.00;99.90;;;;;;5048920;28;20509;-69
2022/03/08 05:29:24;;;;;;;19.52;11.68;;;-1.00;99.90;;;;;;5052816;28;20043;-69
2022/03/08 05:31:50;;;;;;;19.85;11.02;;;-1.00;99.90;;;;;;5086304;28;20497;-69
2022/03/08 05:34:16;;;;;;;20.33;11.77;;;-1.00;99.90;;;;;;5086297;28;20132;-69
2022/03/08 05:36:41;;;;;;;22.48;11.60;;;-1.00;99.90;;;;;;5085913;28;20036;-69
2022/03/08 05:39:07;;;;;;;18.17;10.85;;;-1.00;99.90;;;;;;5086198;28;20032;-69
2022/03/08 05:41:34;;;;;;;22.65;11.38;;;-1.10;99.90;;;;;;5085957;28;20060;-69
2022/03/08 05:43:59;;;;;;;19.92;12.20;;;-1.10;99.90;;;;;;5052629;28;20033;-69
2022/03/08 05:46:25;;;;;;;21.10;12.70;;;-1.20;99.90;;;;;;5068983;28;20396;-70
2022/03/08 05:48:51;;;;;;;21.55;12.80;;;-1.20;99.90;;;;;;5085700;28;20055;-69
2022/03/08 05:51:17;;;;;;;21.40;11.88;;;-1.20;99.90;;;;;;5085588;28;20045;-70
2022/03/08 05:53:43;;;;;;;19.83;11.40;;;-1.20;99.90;;;;;;5052081;28;20053;-70
2022/03/08 05:56:10;;;;;;;22.10;12.45;;;-1.20;99.90;;;;;;5052213;28;20048;-69
2022/03/08 05:58:36;;;;;;;19.42;11.93;;;-1.20;99.90;;;;;;5082426;28;20041;-69
2022/03/08 06:01:02;;;;;;;18.63;11.75;;;-1.20;99.90;;;;;;5052097;28;20570;-69
2022/03/08 06:03:28;;;;;;;22.50;11.60;;;-1.20;99.90;;;;;;5068870;28;20474;-69
2022/03/08 06:05:54;;;;;;;17.80;11.75;;;-1.20;99.90;;;;;;5085356;28;20397;-69
2022/03/08 06:08:19;;;;;;;20.33;11.93;;;-1.20;99.90;;;;;;5068570;28;20049;-69
2022/03/08 06:10:45;;;;;;;23.80;12.43;;;-1.20;99.90;;;;;;5051516;28;20128;-69
2022/03/08 06:13:11;;;;;;;21.88;12.63;;;-1.20;99.90;;;;;;5085250;28;20048;-69
2022/03/08 06:15:37;;;;;;;20.95;12.07;;;-1.20;99.90;;;;;;5085170;28;20052;-69
2022/03/08 06:18:03;;;;;;;17.20;10.98;;;-1.20;99.90;;;;;;5084908;28;20063;-69
2022/03/08 06:20:29;;;;;;;25.77;12.13;;;-1.20;99.90;;;;;;5085441;28;20071;-69
2022/03/08 06:22:56;;;;;;;18.08;11.90;;;-1.20;99.90;;;;;;5085113;28;20041;-69
2022/03/08 06:25:21;;;;;;;19.25;11.65;;;-1.10;99.90;;;;;;5053907;28;20132;-70
2022/03/08 06:27:48;;;;;;;21.98;12.73;;;-1.10;99.90;;;;;;5083031;28;20119;-69
2022/03/08 06:30:14;;;;;;;20.15;12.50;;;-1.10;99.90;;;;;;5084824;28;20504;-69
2022/03/08 06:32:40;;;;;;;23.10;13.13;;;-1.00;99.90;;;;;;5084595;28;20120;-69
2022/03/08 06:35:06;;;;;;;20.65;11.32;;;-1.00;99.90;;;;;;5051011;28;20193;-69
2022/03/08 06:37:32;;;;;;;20.80;12.65;;;-0.90;99.90;;;;;;5067688;28;20497;-69
2022/03/08 06:39:57;;;;;;;16.83;10.65;;;-0.90;99.90;;;;;;5085134;28;20036;-69
2022/03/08 06:42:23;;;;;;;22.88;12.45;;;-0.80;99.90;;;;;;5067897;28;20496;-69
2022/03/08 06:44:49;;;;;;;19.02;11.90;;;-0.80;99.90;;;;;;5034628;28;20033;-69
2022/03/08 06:47:15;;;;;;;19.60;12.05;;;-0.60;99.90;;;;;;5051378;28;20048;-69
2022/03/08 06:49:42;;;;;;;18.65;11.85;;;-0.40;99.90;;;;;;5084993;28;20080;-69
2022/03/08 06:52:09;;;;;;;20.02;12.10;;;-0.30;99.90;;;;;;5084854;28;20370;-69
2022/03/08 06:54:35;;;;;;;19.70;11.95;;;-0.10;99.90;;;;;;5034663;28;20453;-69
2022/03/08 06:57:02;;;;;;;20.52;11.52;;;0.00;99.90;;;;;;5082458;28;20070;-68
2022/03/08 06:59:27;;;;;;;18.15;11.30;;;0.20;99.90;;;;;;5050812;28;20037;-68
2022/03/08 07:01:53;;;;;;;17.42;9.98;;;0.40;99.90;;;;;;5084630;28;20095;-68
2022/03/08 07:04:19;;;;;;;21.00;11.68;;;0.60;99.90;;;;;;5050874;28;20040;-68
2022/03/08 07:06:45;;;;;;;18.48;11.07;;;0.80;99.90;;;;;;5084322;28;20056;-68
2022/03/08 07:09:11;;;;;;;17.20;10.02;;;0.80;99.90;;;;;;5067158;28;20041;-68
2022/03/08 07:11:37;;;;;;;17.27;10.55;;;0.90;99.90;;;;;;5050968;28;20048;-68
2022/03/08 07:14:03;;;;;;;16.58;10.35;;;0.90;99.90;;;;;;5067689;28;20040;-68
2022/03/08 07:16:29;;;;;;;18.30;11.02;;;0.90;99.90;;;;;;5050640;28;20489;-68
2022/03/08 07:18:55;;;;;;;18.08;11.35;;;0.90;99.90;;;;;;5084064;28;20055;-68
2022/03/08 07:21:23;;;;;;;18.48;12.27;;;1.00;99.90;;;;;;5050621;28;20056;-68
2022/03/08 07:23:48;;;;;;;20.48;11.48;;;1.00;99.90;;;;;;5084080;28;20051;-68
2022/03/08 07:26:14;;;;;;;14.98;10.00;;;1.10;99.90;;;;;;5083986;28;20040;-67
2022/03/08 07:28:40;;;;;;;16.65;10.88;;;1.10;99.90;;;;;;5069567;28;20048;-67
2022/03/08 07:31:07;;;;;;;15.52;10.00;;;1.20;99.90;;;;;;5052101;28;20508;-67
2022/03/08 07:33:33;;;;;;;16.45;10.52;;;1.30;99.90;;;;;;5052370;28;20072;-66
2022/03/08 07:36:00;;;;;;;15.02;10.43;;;1.40;99.90;;;;;;5034049;28;20075;-67
2022/03/08 07:38:26;;;;;;;17.80;11.02;;;1.50;99.90;;;;;;5051219;28;20115;-67
2022/03/08 07:40:52;;;;;;;17.05;10.65;;;1.60;99.90;;;;;;5050368;28;20045;-67
2022/03/08 07:43:19;;;;;;;16.60;9.93;;;1.70;99.90;;;;;;5034004;28;20038;-67
2022/03/08 07:45:45;;;;;;;15.68;9.55;;;1.80;99.90;;;;;;5050386;28;20119;-66
2022/03/08 07:48:11;;;;;;;17.30;10.35;;;1.90;99.90;;;;;;5050523;28;20056;-67
2022/03/08 07:50:37;;;;;;;17.42;10.55;;;2.00;99.90;;;;;;5050733;28;20052;-67
2022/03/08 07:53:06;;;;;;;16.40;9.85;;;2.10;99.90;;;;;;5051414;28;20048;-67
2022/03/08 07:55:32;;;;;;;15.85;9.35;;;2.30;99.90;;;;;;5051455;28;20037;-67
2022/03/08 07:57:59;;;;;;;13.82;9.52;;;2.50;99.90;;;;;;5048681;28;20465;-67
2022/03/08 08:00:26;;;;;;;14.40;9.35;;;2.70;99.90;;;;;;5051066;28;20076;-68
2022/03/08 08:02:52;;;;;;;15.30;10.25;;;2.80;99.90;;;;;;5050975;28;20493;-67
2022/03/08 08:05:19;;;;;;;13.70;8.90;;;2.90;99.90;;;;;;5051323;28;20043;-67
2022/03/08 08:07:45;;;;;;;13.80;8.93;;;3.10;99.90;;;;;;5050925;28;20092;-68
2022/03/08 08:10:11;;;;;;;11.57;8.85;;;3.20;99.90;;;;;;5048748;28;20052;-67
2022/03/08 08:12:38;;;;;;;16.42;9.63;;;3.40;99.90;;;;;;5050723;28;20041;-68
2022/03/08 08:15:05;;;;;;;15.43;9.43;;;3.70;99.90;;;;;;5034493;28;20041;-67
2022/03/08 08:17:31;;;;;;;13.55;9.30;;;3.90;99.90;;;;;;5050717;28;20072;-68
2022/03/08 08:19:57;;;;;;;12.07;8.82;;;4.20;99.90;;;;;;5050758;28;20455;-67
2022/03/08 08:22:22;;;;;;;12.38;9.38;;;4.60;99.90;;;;;;5054146;28;20072;-68
2022/03/08 08:24:48;;;;;;;11.60;8.50;;;5.30;99.90;;;;;;5054575;28;20116;-68
2022/03/08 08:27:14;;;;;;;13.93;9.02;;;6.10;99.90;;;;;;5052579;28;20045;-68
2022/03/08 08:29:40;;;;;;;13.30;8.90;;;6.60;99.90;;;;;;5054647;28;20037;-68
2022/03/08 08:32:06;;;;;;;12.32;8.77;;;7.00;99.90;;;;;;5054407;28;20087;-68
2022/03/08 08:34:32;;;;;;;12.18;8.77;;;7.50;99.90;;;;;;5055604;28;20068;-68
2022/03/08 08:36:58;;;;;;;11.38;9.32;;;7.90;99.90;;;;;;5037955;28;20057;-69
2022/03/08 08:39:24;;;;;;;11.90;8.82;;;8.00;99.90;;;;;;5054367;28;20037;-69
2022/03/08 08:41:50;;;;;;;10.32;8.23;;;7.80;99.90;;;;;;5054673;28;20063;-69
2022/03/08 08:44:18;;;;;;;11.82;8.38;;;7.70;99.90;;;;;;5054387;28;20041;-69
2022/03/08 08:46:45;;;;;;;9.65;7.63;;;7.80;99.90;;;;;;5037827;28;20033;-68
2022/03/08 08:49:11;;;;;;;11.27;8.27;;;8.10;99.90;;;;;;5054403;28;20382;-68
2022/03/08 08:51:37;;;;;;;10.60;8.80;;;8.40;99.90;;;;;;5054590;28;20044;-68
2022/03/08 08:54:03;;;;;;;10.30;8.43;;;8.80;99.60;;;;;;5054340;28;20121;-69
2022/03/08 08:56:29;;;;;;;10.93;7.93;;;9.10;99.90;;;;;;5054413;28;20048;-69
2022/03/08 08:58:55;;;;;;;11.50;8.18;;;9.50;96.30;;;;;;5035259;28;20033;-68
2022/03/08 09:01:21;;;;;;;8.13;6.90;;;9.80;95.70;;;;;;5037525;28;20063;-70
2022/03/08 09:03:47;;;;;;;9.43;7.70;;;10.10;92.80;;;;;;5054193;28;20052;-68
2022/03/08 09:06:13;;;;;;;9.43;7.13;;;10.30;91.50;;;;;;5054278;28;20056;-68
2022/03/08 09:08:39;;;;;;;10.50;6.72;;;10.70;90.40;;;;;;5054130;28;20397;-68
2022/03/08 09:11:08;;;;;;;8.65;6.72;;;10.90;86.00;;;;;;5054232;28;20052;-69
2022/03/08 09:13:34;;;;;;;7.90;7.07;;;11.00;82.10;;;;;;5053835;28;20080;-70
2022/03/08 09:16:00;;;;;;;7.93;6.20;;;11.20;78.10;;;;;;5053875;28;20130;-72
2022/03/08 09:18:25;;;;;;;7.32;6.22;;;11.30;71.70;;;;;;5053549;28;20059;-70
2022/03/08 09:20:51;;;;;;;9.30;5.65;;;11.20;73.30;;;;;;5037153;28;20037;-70
2022/03/08 09:23:17;;;;;;;7.43;5.50;;;11.40;67.60;;;;;;5037145;28;20041;-71
2022/03/08 09:25:43;;;;;;;6.95;5.78;;;11.40;66.80;;;;;;5053671;28;20107;-69
2022/03/08 09:28:09;;;;;;;7.28;5.18;;;11.40;66.20;;;;;;5051833;28;20041;-71
2022/03/08 09:30:37;;;;;;;7.65;5.63;;;11.40;60.60;;;;;;5053665;28;20049;-69
2022/03/08 09:33:03;;;;;;;9.10;5.75;;;11.20;62.20;;;;;;5052313;28;20041;-70
2022/03/08 09:35:29;;;;;;;7.32;5.43;;;11.30;61.60;;;;;;5053811;28;20447;-73
2022/03/08 09:37:56;;;;;;;7.53;5.40;;;11.40;60.10;;;;;;5053388;28;20049;-70
2022/03/08 09:40:23;;;;;;;7.40;5.40;;;11.60;60.70;;;;;;5053508;28;20044;-72
2022/03/08 09:42:50;;;;;;;8.32;6.13;;;11.60;57.40;;;;;;5053381;28;20041;-70
2022/03/08 09:45:17;;;;;;;6.18;4.97;;;11.50;57.60;;;;;;5053309;28;20041;-70
2022/03/08 09:47:43;;;;;;;6.88;5.47;;;11.50;56.80;;;;;;5052988;28;20039;-68
2022/03/08 09:50:14;;;;;;;6.15;5.10;;;11.60;58.50;;;;;;5053457;28;20045;-69
2022/03/08 09:52:41;;;;;;;9.48;6.00;;;11.90;58.60;;;;;;5053046;28;20092;-71
2022/03/08 09:55:12;;;;;;;7.72;5.95;;;12.40;56.00;;;;;;5052972;28;20043;-70
2022/03/08 09:57:38;;;;;;;7.25;6.20;;;12.40;55.20;;;;;;5034880;28;20128;-69
2022/03/08 10:00:06;;;;;;;9.93;5.63;;;12.20;55.40;;;;;;5057775;28;20051;-70
2022/03/08 10:02:55;;;;;;;9.13;5.82;;;12.30;55.40;;;;;;5036340;28;20103;-71
2022/03/08 10:05:30;;;;;;;6.38;5.35;;;12.10;54.50;;;;;;5036292;28;20037;-73
2022/03/08 10:08:13;;;;;;;7.35;6.15;;;12.10;54.30;;;;;;5052587;28;20045;-71
2022/03/08 10:11:00;;;;;;;9.07;6.40;;;12.10;52.70;;;;;;5052806;28;20048;-69
2022/03/08 10:13:40;;;;;;;5.85;4.88;;;12.20;55.20;;;;;;5052982;28;20045;-72
2022/03/08 10:16:42;;;;;;;7.63;4.93;;;12.50;54.30;;;;;;5052692;28;20049;-69
2022/03/08 10:19:10;;;;;;;7.30;6.10;;;12.50;54.00;;;;;;5052304;28;20057;-70
2022/03/08 10:21:57;;;;;;;6.72;5.13;;;12.80;54.60;;;;;;5052562;28;20128;-70
2022/03/08 10:24:29;;;;;;;6.45;5.40;;;13.00;53.80;;;;;;5052438;28;20053;-70
2022/03/08 10:27:10;;;;;;;6.88;5.25;;;13.20;53.40;;;;;;5051136;28;20043;-70
2022/03/08 10:29:39;;;;;;;10.10;5.97;;;13.30;51.20;;;;;;5052234;28;20041;-69
2022/03/08 10:32:17;;;;;;;7.53;5.37;;;13.40;52.70;;;;;;5052371;28;20052;-69
2022/03/08 10:34:45;;;;;;;6.70;5.40;;;13.50;51.50;;;;;;5052338;28;20049;-69
2022/03/08 10:37:17;;;;;;;6.18;5.57;;;13.80;52.50;;;;;;5052606;28;20045;-69
2022/03/08 10:39:52;;;;;;;5.93;4.30;;;13.80;49.40;;;;;;5068848;28;20044;-72
2022/03/08 10:42:29;;;;;;;6.20;4.93;;;13.80;49.60;;;;;;5052408;28;20045;-69
2022/03/08 10:45:07;;;;;;;7.45;5.32;;;13.90;50.40;;;;;;5085089;28;20115;-69
2022/03/08 10:47:50;;;;;;;6.38;5.20;;;13.90;49.40;;;;;;5052185;28;20040;-70
2022/03/08 10:50:19;;;;;;;6.70;5.32;;;13.90;49.30;;;;;;5085388;28;20542;-70
2022/03/08 10:52:47;;;;;;;5.72;4.57;;;13.90;48.60;;;;;;5052265;28;20447;-71
2022/03/08 10:55:22;;;;;;;5.30;4.72;;;13.70;46.60;;;;;;5085690;28;20040;-69
2022/03/08 10:57:54;;;;;;;6.65;5.20;;;13.60;46.40;;;;;;5083192;28;20550;-70
2022/03/08 11:00:23;;;;;;;6.28;5.05;;;13.50;46.70;;;;;;5034270;28;20043;-69
2022/03/08 11:02:59;;;;;;;7.10;5.40;;;13.40;47.30;;;;;;5051742;28;20119;-72
2022/03/08 11:05:30;;;;;;;7.00;5.70;;;13.50;47.40;;;;;;5051969;28;20041;-72
2022/03/08 11:07:57;;;;;;;6.40;5.70;;;13.50;47.80;;;;;;5052097;28;20053;-68
2022/03/08 11:10:27;;;;;;;6.10;4.68;;;13.60;47.20;;;;;;5051661;28;20552;-69
2022/03/08 11:12:54;;;;;;;6.55;5.35;;;13.70;48.60;;;;;;5051722;28;20045;-69
2022/03/08 11:15:22;;;;;;;5.97;4.93;;;13.80;47.40;;;;;;5051687;28;20036;-69
2022/03/08 11:17:50;;;;;;;7.53;5.03;;;13.80;46.10;;;;;;5051517;28;20064;-68
2022/03/08 11:20:20;;;;;;;6.65;5.25;;;13.90;48.00;;;;;;5051637;28;20519;-70
2022/03/08 11:22:54;;;;;;;4.68;3.58;;;14.20;48.70;;;;;;5035585;28;20393;-69
2022/03/08 11:25:22;;;;;;;7.22;5.07;;;14.40;46.50;;;;;;5051299;28;20084;-67
2022/03/08 11:27:48;;;;;;;5.95;5.18;;;14.40;46.70;;;;;;5049807;28;20041;-68
2022/03/08 11:30:22;;;;;;;7.93;4.70;;;14.50;46.60;;;;;;5051639;28;20400;-69
2022/03/08 11:33:06;;;;;;;5.90;5.30;;;14.50;45.30;;;;;;5051745;28;20370;-68
2022/03/08 11:35:41;;;;;;;7.80;4.80;;;14.40;46.60;;;;;;5084931;28;20055;-68
2022/03/08 11:38:13;;;;;;;5.63;4.75;;;14.40;46.50;;;;;;5084903;28;20043;-69
2022/03/08 11:40:45;;;;;;;5.82;4.03;;;14.40;46.70;;;;;;5051229;28;20045;-70
2022/03/08 11:43:11;;;;;;;6.15;4.05;;;14.40;45.30;;;;;;5051772;28;20090;-69
2022/03/08 11:45:37;;;;;;;8.15;5.38;;;14.40;46.50;;;;;;5051517;28;20116;-68
2022/03/08 11:48:10;;;;;;;4.78;4.15;;;14.30;46.50;;;;;;5051544;28;20697;-70
2022/03/08 11:50:44;;;;;;;7.68;5.80;;;14.20;46.60;;;;;;5084978;28;20044;-68
2022/03/08 11:53:18;;;;;;;6.47;4.82;;;14.30;46.40;;;;;;5051362;28;20512;-70
2022/03/08 11:55:44;;;;;;;5.68;4.90;;;14.20;44.30;;;;;;5054045;28;20041;-71
2022/03/08 11:58:20;;;;;;;6.97;5.30;;;14.20;46.20;;;;;;5054138;28;20064;-70
2022/03/08 12:00:54;;;;;;;7.88;4.53;;;14.30;46.50;;;;;;5089092;28;20127;-69
2022/03/08 12:03:23;;;;;;;5.80;4.50;;;14.40;45.00;;;;;;5055642;28;20076;-69
2022/03/08 12:05:57;;;;;;;5.63;5.00;;;14.30;44.90;;;;;;5055629;28;20436;-68
2022/03/08 12:08:28;;;;;;;5.63;4.85;;;14.30;47.10;;;;;;5038885;28;20080;-70
2022/03/08 12:11:02;;;;;;;5.18;4.43;;;14.60;46.00;;;;;;5055000;28;20481;-68
2022/03/08 12:13:32;;;;;;;5.40;4.10;;;14.50;44.90;;;;;;5055182;28;20090;-69
2022/03/08 12:16:10;;;;;;;4.80;4.00;;;14.60;46.00;;;;;;5088714;28;20044;-68
2022/03/08 12:18:40;;;;;;;6.32;5.20;;;14.20;44.30;;;;;;5054767;28;20056;-69
2022/03/08 12:21:16;;;;;;;5.72;4.75;;;14.00;45.20;;;;;;5054808;28;20041;-69
2022/03/08 12:23:55;;;;;;;7.35;4.78;;;13.80;44.80;;;;;;5055266;28;20622;-67
2022/03/08 12:26:30;;;;;;;5.95;4.22;;;13.50;45.90;;;;;;5071818;28;20133;-70
2022/03/08 12:29:09;;;;;;;5.82;4.53;;;13.60;44.80;;;;;;5053208;28;20045;-68
2022/03/08 12:32:05;;;;;;;5.00;3.95;;;13.70;45.60;;;;;;5088603;28;20520;-69
2022/03/08 12:34:42;;;;;;;6.45;4.55;;;13.80;44.50;;;;;;5038373;28;20420;-68
2022/03/08 12:37:24;;;;;;;7.18;4.13;;;14.30;45.80;;;;;;5055070;28;20080;-69
2022/03/08 12:39:53;;;;;;;5.70;4.28;;;14.80;45.00;;;;;;5054290;28;20057;-69
2022/03/08 12:42:24;;;;;;;5.57;3.53;;;14.80;42.20;;;;;;5071051;28;20044;-70